<?xml version="1.0" encoding="UTF-8" standalone="no" ?>
<gpx xmlns="http://www.topografix.com/GPX/1/1" xmlns:xsi="http://www.w3.org/2001/XMLSchema-instance" xsi:schemaLocation="http://www.topografix.com/GPX/1/1 http://www.topografix.com/GPX/1/1/gpx.xsd" version="1.1" creator="VisuGPX - https://www.visugpx.com">
  <metadata>
    <name>Le Saix Peyssier </name>
    <desc><![CDATA[Boucle sur une journée. Si vous avez le temps montez jusqu'au col de Peyssier.]]></desc>
  </metadata>
  <trk>
    <name><![CDATA[OR-6602991--Saix (Le):Le Saix Peyssier]]></name>
    <trkseg>
      <trkpt lat="44.47609" lon="5.81669">
        <ele>801</ele>
        <time>2016-09-19T11:11:16Z</time>
      </trkpt>
      <trkpt lat="44.47553" lon="5.82107">
        <ele>810</ele>
        <time>2016-09-19T11:13:16Z</time>
      </trkpt>
      <trkpt lat="44.47525" lon="5.8235">
        <ele>820</ele>
        <time>2016-09-19T11:15:16Z</time>
      </trkpt>
      <trkpt lat="44.47516" lon="5.82429">
        <ele>827</ele>
        <time>2016-09-19T11:17:16Z</time>
      </trkpt>
      <trkpt lat="44.47481" lon="5.82536">
        <ele>829</ele>
        <time>2016-09-19T11:19:16Z</time>
      </trkpt>
      <trkpt lat="44.47449" lon="5.82682">
        <ele>826</ele>
        <time>2016-09-19T11:21:16Z</time>
      </trkpt>
      <trkpt lat="44.4734" lon="5.82809">
        <ele>830</ele>
        <time>2016-09-19T11:23:16Z</time>
      </trkpt>
      <trkpt lat="44.47247" lon="5.82837">
        <ele>832</ele>
        <time>2016-09-19T11:25:16Z</time>
      </trkpt>
      <trkpt lat="44.47159" lon="5.8297">
        <ele>846</ele>
        <time>2016-09-19T11:27:16Z</time>
      </trkpt>
      <trkpt lat="44.471" lon="5.83023">
        <ele>853</ele>
        <time>2016-09-19T11:29:16Z</time>
      </trkpt>
      <trkpt lat="44.47046" lon="5.82987">
        <ele>844</ele>
        <time>2016-09-19T11:31:16Z</time>
      </trkpt>
      <trkpt lat="44.46991" lon="5.82976">
        <ele>847</ele>
        <time>2016-09-19T11:33:16Z</time>
      </trkpt>
      <trkpt lat="44.4692" lon="5.82974">
        <ele>850</ele>
        <time>2016-09-19T11:35:16Z</time>
      </trkpt>
      <trkpt lat="44.46874" lon="5.82914">
        <ele>846</ele>
        <time>2016-09-19T11:37:16Z</time>
      </trkpt>
      <trkpt lat="44.46802" lon="5.82907">
        <ele>855</ele>
        <time>2016-09-19T11:39:16Z</time>
      </trkpt>
      <trkpt lat="44.46727" lon="5.82882">
        <ele>857</ele>
        <time>2016-09-19T11:41:16Z</time>
      </trkpt>
      <trkpt lat="44.46657" lon="5.82931">
        <ele>875</ele>
        <time>2016-09-19T11:43:16Z</time>
      </trkpt>
      <trkpt lat="44.46629" lon="5.8292">
        <ele>880</ele>
        <time>2016-09-19T11:45:16Z</time>
      </trkpt>
      <trkpt lat="44.466" lon="5.82922">
        <ele>890</ele>
        <time>2016-09-19T11:47:16Z</time>
      </trkpt>
      <trkpt lat="44.46553" lon="5.82914">
        <ele>902</ele>
        <time>2016-09-19T11:49:16Z</time>
      </trkpt>
      <trkpt lat="44.4649" lon="5.8294">
        <ele>917</ele>
        <time>2016-09-19T11:51:16Z</time>
      </trkpt>
      <trkpt lat="44.46377" lon="5.82963">
        <ele>925</ele>
        <time>2016-09-19T11:53:16Z</time>
      </trkpt>
      <trkpt lat="44.46335" lon="5.82976">
        <ele>927</ele>
        <time>2016-09-19T11:55:16Z</time>
      </trkpt>
      <trkpt lat="44.46291" lon="5.83028">
        <ele>933</ele>
        <time>2016-09-19T11:57:16Z</time>
      </trkpt>
      <trkpt lat="44.46248" lon="5.83025">
        <ele>945</ele>
        <time>2016-09-19T11:59:16Z</time>
      </trkpt>
      <trkpt lat="44.46262" lon="5.83109">
        <ele>955</ele>
        <time>2016-09-19T12:01:16Z</time>
      </trkpt>
      <trkpt lat="44.46221" lon="5.83028">
        <ele>953</ele>
        <time>2016-09-19T12:03:16Z</time>
      </trkpt>
      <trkpt lat="44.46155" lon="5.82995">
        <ele>967</ele>
        <time>2016-09-19T12:05:16Z</time>
      </trkpt>
      <trkpt lat="44.46214" lon="5.83075">
        <ele>960</ele>
        <time>2016-09-19T12:07:16Z</time>
      </trkpt>
      <trkpt lat="44.46216" lon="5.83126">
        <ele>976</ele>
        <time>2016-09-19T12:09:16Z</time>
      </trkpt>
      <trkpt lat="44.4615" lon="5.83045">
        <ele>978</ele>
        <time>2016-09-19T12:11:16Z</time>
      </trkpt>
      <trkpt lat="44.46067" lon="5.83013">
        <ele>989</ele>
        <time>2016-09-19T12:13:16Z</time>
      </trkpt>
      <trkpt lat="44.45966" lon="5.82959">
        <ele>996</ele>
        <time>2016-09-19T12:15:16Z</time>
      </trkpt>
      <trkpt lat="44.45877" lon="5.8304">
        <ele>1000</ele>
        <time>2016-09-19T12:17:16Z</time>
      </trkpt>
      <trkpt lat="44.45796" lon="5.83068">
        <ele>1004</ele>
        <time>2016-09-19T12:19:16Z</time>
      </trkpt>
      <trkpt lat="44.45734" lon="5.83118">
        <ele>1013</ele>
        <time>2016-09-19T12:21:16Z</time>
      </trkpt>
      <trkpt lat="44.45729" lon="5.83201">
        <ele>1020</ele>
        <time>2016-09-19T12:23:16Z</time>
      </trkpt>
      <trkpt lat="44.45651" lon="5.83322">
        <ele>1031</ele>
        <time>2016-09-19T12:25:16Z</time>
      </trkpt>
      <trkpt lat="44.45613" lon="5.83352">
        <ele>1037</ele>
        <time>2016-09-19T12:27:16Z</time>
      </trkpt>
      <trkpt lat="44.45596" lon="5.8342">
        <ele>1043</ele>
        <time>2016-09-19T12:29:16Z</time>
      </trkpt>
      <trkpt lat="44.45568" lon="5.83478">
        <ele>1049</ele>
        <time>2016-09-19T12:31:16Z</time>
      </trkpt>
      <trkpt lat="44.45544" lon="5.83545">
        <ele>1058</ele>
        <time>2016-09-19T12:33:16Z</time>
      </trkpt>
      <trkpt lat="44.45453" lon="5.83577">
        <ele>1073</ele>
        <time>2016-09-19T12:35:16Z</time>
      </trkpt>
      <trkpt lat="44.4542" lon="5.83734">
        <ele>1089</ele>
        <time>2016-09-19T12:37:16Z</time>
      </trkpt>
      <trkpt lat="44.45427" lon="5.83806">
        <ele>1097</ele>
        <time>2016-09-19T12:39:16Z</time>
      </trkpt>
      <trkpt lat="44.45441" lon="5.83907">
        <ele>1111</ele>
        <time>2016-09-19T12:41:16Z</time>
      </trkpt>
      <trkpt lat="44.45363" lon="5.84021">
        <ele>1119</ele>
        <time>2016-09-19T12:43:16Z</time>
      </trkpt>
      <trkpt lat="44.45358" lon="5.84128">
        <ele>1125</ele>
        <time>2016-09-19T12:45:16Z</time>
      </trkpt>
      <trkpt lat="44.453" lon="5.84203">
        <ele>1123</ele>
        <time>2016-09-19T12:47:16Z</time>
      </trkpt>
      <trkpt lat="44.4526" lon="5.84276">
        <ele>1127</ele>
        <time>2016-09-19T12:49:16Z</time>
      </trkpt>
      <trkpt lat="44.45188" lon="5.84302">
        <ele>1123</ele>
        <time>2016-09-19T12:51:16Z</time>
      </trkpt>
      <trkpt lat="44.45148" lon="5.84354">
        <ele>1125</ele>
        <time>2016-09-19T12:53:16Z</time>
      </trkpt>
      <trkpt lat="44.45089" lon="5.84416">
        <ele>1136</ele>
        <time>2016-09-19T12:55:16Z</time>
      </trkpt>
      <trkpt lat="44.4506" lon="5.84285">
        <ele>1142</ele>
        <time>2016-09-19T12:57:16Z</time>
      </trkpt>
      <trkpt lat="44.45001" lon="5.84214">
        <ele>1153</ele>
        <time>2016-09-19T12:59:16Z</time>
      </trkpt>
      <trkpt lat="44.44945" lon="5.8409">
        <ele>1160</ele>
        <time>2016-09-19T13:01:16Z</time>
      </trkpt>
      <trkpt lat="44.449" lon="5.84094">
        <ele>1171</ele>
        <time>2016-09-19T13:03:16Z</time>
      </trkpt>
      <trkpt lat="44.44939" lon="5.84227">
        <ele>1176</ele>
        <time>2016-09-19T13:05:16Z</time>
      </trkpt>
      <trkpt lat="44.44923" lon="5.84352">
        <ele>1193</ele>
        <time>2016-09-19T13:07:16Z</time>
      </trkpt>
      <trkpt lat="44.44876" lon="5.84467">
        <ele>1205</ele>
        <time>2016-09-19T13:09:16Z</time>
      </trkpt>
      <trkpt lat="44.44841" lon="5.84555">
        <ele>1211</ele>
        <time>2016-09-19T13:11:16Z</time>
      </trkpt>
      <trkpt lat="44.4485" lon="5.8468">
        <ele>1221</ele>
        <time>2016-09-19T13:13:16Z</time>
      </trkpt>
      <trkpt lat="44.44775" lon="5.8454">
        <ele>1237</ele>
        <time>2016-09-19T13:15:16Z</time>
      </trkpt>
      <trkpt lat="44.44738" lon="5.84354">
        <ele>1251</ele>
        <time>2016-09-19T13:17:16Z</time>
      </trkpt>
      <trkpt lat="44.44661" lon="5.84244">
        <ele>1263</ele>
        <time>2016-09-19T13:19:16Z</time>
      </trkpt>
      <trkpt lat="44.44557" lon="5.84058">
        <ele>1282</ele>
        <time>2016-09-19T13:21:16Z</time>
      </trkpt>
      <trkpt lat="44.44504" lon="5.83912">
        <ele>1294</ele>
        <time>2016-09-19T13:23:16Z</time>
      </trkpt>
      <trkpt lat="44.44461" lon="5.83813">
        <ele>1308</ele>
        <time>2016-09-19T13:25:16Z</time>
      </trkpt>
      <trkpt lat="44.44451" lon="5.83551">
        <ele>1318</ele>
        <time>2016-09-19T13:27:16Z</time>
      </trkpt>
      <trkpt lat="44.44428" lon="5.83446">
        <ele>1330</ele>
        <time>2016-09-19T13:29:16Z</time>
      </trkpt>
      <trkpt lat="44.44439" lon="5.83311">
        <ele>1321</ele>
        <time>2016-09-19T13:31:16Z</time>
      </trkpt>
      <trkpt lat="44.44384" lon="5.83193">
        <ele>1339</ele>
        <time>2016-09-19T13:33:16Z</time>
      </trkpt>
      <trkpt lat="44.4435" lon="5.82903">
        <ele>1363</ele>
        <time>2016-09-19T13:35:16Z</time>
      </trkpt>
      <trkpt lat="44.4437" lon="5.82759">
        <ele>1371</ele>
        <time>2016-09-19T13:37:16Z</time>
      </trkpt>
      <trkpt lat="44.44421" lon="5.82708">
        <ele>1364</ele>
        <time>2016-09-19T13:39:16Z</time>
      </trkpt>
      <trkpt lat="44.4445" lon="5.82607">
        <ele>1370</ele>
        <time>2016-09-19T13:41:16Z</time>
      </trkpt>
      <trkpt lat="44.44445" lon="5.82506">
        <ele>1389</ele>
        <time>2016-09-19T13:43:16Z</time>
      </trkpt>
      <trkpt lat="44.44511" lon="5.82307">
        <ele>1412</ele>
        <time>2016-09-19T13:45:16Z</time>
      </trkpt>
      <trkpt lat="44.44576" lon="5.82234">
        <ele>1410</ele>
        <time>2016-09-19T13:47:16Z</time>
      </trkpt>
      <trkpt lat="44.44635" lon="5.82006">
        <ele>1423</ele>
        <time>2016-09-19T13:49:16Z</time>
      </trkpt>
      <trkpt lat="44.44605" lon="5.82034">
        <ele>1432</ele>
        <time>2016-09-19T13:51:16Z</time>
      </trkpt>
      <trkpt lat="44.44569" lon="5.82103">
        <ele>1434</ele>
        <time>2016-09-19T13:53:16Z</time>
      </trkpt>
      <trkpt lat="44.4452" lon="5.8209">
        <ele>1449</ele>
        <time>2016-09-19T13:55:16Z</time>
      </trkpt>
      <trkpt lat="44.445" lon="5.82154">
        <ele>1442</ele>
        <time>2016-09-19T13:57:16Z</time>
      </trkpt>
      <trkpt lat="44.44465" lon="5.8215">
        <ele>1459</ele>
        <time>2016-09-19T13:59:16Z</time>
      </trkpt>
      <trkpt lat="44.44399" lon="5.82272">
        <ele>1462</ele>
        <time>2016-09-19T14:01:16Z</time>
      </trkpt>
      <trkpt lat="44.44303" lon="5.82365">
        <ele>1478</ele>
        <time>2016-09-19T14:03:16Z</time>
      </trkpt>
      <trkpt lat="44.44217" lon="5.82504">
        <ele>1480</ele>
        <time>2016-09-19T14:05:16Z</time>
      </trkpt>
      <trkpt lat="44.44127" lon="5.82603">
        <ele>1485</ele>
        <time>2016-09-19T14:07:16Z</time>
      </trkpt>
      <trkpt lat="44.4407" lon="5.82742">
        <ele>1495</ele>
        <time>2016-09-19T14:09:16Z</time>
      </trkpt>
      <trkpt lat="44.44004" lon="5.82892">
        <ele>1512</ele>
        <time>2016-09-19T14:11:16Z</time>
      </trkpt>
      <trkpt lat="44.43967" lon="5.83051">
        <ele>1524</ele>
        <time>2016-09-19T14:13:16Z</time>
      </trkpt>
      <trkpt lat="44.43894" lon="5.83098">
        <ele>1520</ele>
        <time>2016-09-19T14:15:16Z</time>
      </trkpt>
      <trkpt lat="44.43866" lon="5.83156">
        <ele>1526</ele>
        <time>2016-09-19T14:17:16Z</time>
      </trkpt>
      <trkpt lat="44.43799" lon="5.83193">
        <ele>1517</ele>
        <time>2016-09-19T14:19:16Z</time>
      </trkpt>
      <trkpt lat="44.43708" lon="5.83259">
        <ele>1511</ele>
        <time>2016-09-19T14:21:16Z</time>
      </trkpt>
      <trkpt lat="44.43641" lon="5.83332">
        <ele>1510</ele>
        <time>2016-09-19T14:23:16Z</time>
      </trkpt>
      <trkpt lat="44.43587" lon="5.83407">
        <ele>1499</ele>
        <time>2016-09-19T14:25:16Z</time>
      </trkpt>
      <trkpt lat="44.43607" lon="5.83568">
        <ele>1510</ele>
        <time>2016-09-19T14:27:16Z</time>
      </trkpt>
      <trkpt lat="44.43636" lon="5.83789">
        <ele>1530</ele>
        <time>2016-09-19T14:29:16Z</time>
      </trkpt>
      <trkpt lat="44.43597" lon="5.83914">
        <ele>1531</ele>
        <time>2016-09-19T14:31:16Z</time>
      </trkpt>
      <trkpt lat="44.43546" lon="5.84058">
        <ele>1534</ele>
        <time>2016-09-19T14:33:16Z</time>
      </trkpt>
      <trkpt lat="44.43561" lon="5.84199">
        <ele>1552</ele>
        <time>2016-09-19T14:35:16Z</time>
      </trkpt>
      <trkpt lat="44.43503" lon="5.84379">
        <ele>1560</ele>
        <time>2016-09-19T14:37:16Z</time>
      </trkpt>
      <trkpt lat="44.43364" lon="5.84394">
        <ele>1542</ele>
        <time>2016-09-19T14:39:16Z</time>
      </trkpt>
      <trkpt lat="44.43338" lon="5.84558">
        <ele>1559</ele>
        <time>2016-09-19T14:41:16Z</time>
      </trkpt>
      <trkpt lat="44.43404" lon="5.84699">
        <ele>1572</ele>
        <time>2016-09-19T14:43:16Z</time>
      </trkpt>
      <trkpt lat="44.43434" lon="5.84787">
        <ele>1571</ele>
        <time>2016-09-19T14:45:16Z</time>
      </trkpt>
      <trkpt lat="44.43408" lon="5.84901">
        <ele>1552</ele>
        <time>2016-09-19T14:47:16Z</time>
      </trkpt>
      <trkpt lat="44.43377" lon="5.84991">
        <ele>1532</ele>
        <time>2016-09-19T14:49:16Z</time>
      </trkpt>
      <trkpt lat="44.43341" lon="5.85092">
        <ele>1509</ele>
        <time>2016-09-19T14:51:16Z</time>
      </trkpt>
      <trkpt lat="44.43324" lon="5.85165">
        <ele>1502</ele>
        <time>2016-09-19T14:53:16Z</time>
      </trkpt>
      <trkpt lat="44.43313" lon="5.85223">
        <ele>1498</ele>
        <time>2016-09-19T14:55:16Z</time>
      </trkpt>
      <trkpt lat="44.43339" lon="5.85351">
        <ele>1493</ele>
        <time>2016-09-19T14:57:16Z</time>
      </trkpt>
      <trkpt lat="44.43267" lon="5.85508">
        <ele>1478</ele>
        <time>2016-09-19T14:59:16Z</time>
      </trkpt>
      <trkpt lat="44.43269" lon="5.85622">
        <ele>1464</ele>
        <time>2016-09-19T15:01:16Z</time>
      </trkpt>
      <trkpt lat="44.43247" lon="5.85736">
        <ele>1442</ele>
        <time>2016-09-19T15:03:16Z</time>
      </trkpt>
      <trkpt lat="44.43264" lon="5.85804">
        <ele>1423</ele>
        <time>2016-09-19T15:05:16Z</time>
      </trkpt>
      <trkpt lat="44.43305" lon="5.85789">
        <ele>1420</ele>
        <time>2016-09-19T15:07:16Z</time>
      </trkpt>
      <trkpt lat="44.43393" lon="5.85813">
        <ele>1414</ele>
        <time>2016-09-19T15:09:16Z</time>
      </trkpt>
      <trkpt lat="44.43413" lon="5.85929">
        <ele>1398</ele>
        <time>2016-09-19T15:11:16Z</time>
      </trkpt>
      <trkpt lat="44.43586" lon="5.86169">
        <ele>1389</ele>
        <time>2016-09-19T15:13:16Z</time>
      </trkpt>
      <trkpt lat="44.43649" lon="5.8633">
        <ele>1363</ele>
        <time>2016-09-19T15:15:16Z</time>
      </trkpt>
      <trkpt lat="44.43719" lon="5.86411">
        <ele>1348</ele>
        <time>2016-09-19T15:17:16Z</time>
      </trkpt>
      <trkpt lat="44.43874" lon="5.86407">
        <ele>1357</ele>
        <time>2016-09-19T15:19:16Z</time>
      </trkpt>
      <trkpt lat="44.43958" lon="5.86459">
        <ele>1352</ele>
        <time>2016-09-19T15:21:16Z</time>
      </trkpt>
      <trkpt lat="44.43958" lon="5.86523">
        <ele>1342</ele>
        <time>2016-09-19T15:23:16Z</time>
      </trkpt>
      <trkpt lat="44.43929" lon="5.86587">
        <ele>1332</ele>
        <time>2016-09-19T15:25:16Z</time>
      </trkpt>
      <trkpt lat="44.43918" lon="5.86678">
        <ele>1324</ele>
        <time>2016-09-19T15:27:16Z</time>
      </trkpt>
      <trkpt lat="44.43882" lon="5.86759">
        <ele>1307</ele>
        <time>2016-09-19T15:29:16Z</time>
      </trkpt>
      <trkpt lat="44.43868" lon="5.86901">
        <ele>1289</ele>
        <time>2016-09-19T15:31:16Z</time>
      </trkpt>
      <trkpt lat="44.43839" lon="5.86956">
        <ele>1286</ele>
        <time>2016-09-19T15:33:16Z</time>
      </trkpt>
      <trkpt lat="44.43865" lon="5.871">
        <ele>1291</ele>
        <time>2016-09-19T15:35:16Z</time>
      </trkpt>
      <trkpt lat="44.43803" lon="5.87105">
        <ele>1290</ele>
        <time>2016-09-19T15:37:16Z</time>
      </trkpt>
      <trkpt lat="44.43733" lon="5.87154">
        <ele>1292</ele>
        <time>2016-09-19T15:39:16Z</time>
      </trkpt>
      <trkpt lat="44.4365" lon="5.8722">
        <ele>1291</ele>
        <time>2016-09-19T15:41:16Z</time>
      </trkpt>
      <trkpt lat="44.43571" lon="5.8725">
        <ele>1290</ele>
        <time>2016-09-19T15:43:16Z</time>
      </trkpt>
      <trkpt lat="44.43486" lon="5.87293">
        <ele>1289</ele>
        <time>2016-09-19T15:45:16Z</time>
      </trkpt>
      <trkpt lat="44.43402" lon="5.87317">
        <ele>1292</ele>
        <time>2016-09-19T15:47:16Z</time>
      </trkpt>
      <trkpt lat="44.43336" lon="5.87336">
        <ele>1292</ele>
        <time>2016-09-19T15:49:16Z</time>
      </trkpt>
      <trkpt lat="44.43336" lon="5.87283">
        <ele>1297</ele>
        <time>2016-09-19T15:51:16Z</time>
      </trkpt>
      <trkpt lat="44.43502" lon="5.87235">
        <ele>1289</ele>
        <time>2016-09-19T15:53:16Z</time>
      </trkpt>
      <trkpt lat="44.43649" lon="5.87184">
        <ele>1290</ele>
        <time>2016-09-19T15:55:16Z</time>
      </trkpt>
      <trkpt lat="44.43802" lon="5.87068">
        <ele>1286</ele>
        <time>2016-09-19T15:57:16Z</time>
      </trkpt>
      <trkpt lat="44.43833" lon="5.87057">
        <ele>1286</ele>
        <time>2016-09-19T15:59:16Z</time>
      </trkpt>
      <trkpt lat="44.43827" lon="5.86922">
        <ele>1287</ele>
        <time>2016-09-19T16:01:16Z</time>
      </trkpt>
      <trkpt lat="44.43919" lon="5.86875">
        <ele>1292</ele>
        <time>2016-09-19T16:03:16Z</time>
      </trkpt>
      <trkpt lat="44.43952" lon="5.86811">
        <ele>1298</ele>
        <time>2016-09-19T16:05:16Z</time>
      </trkpt>
      <trkpt lat="44.44038" lon="5.86708">
        <ele>1305</ele>
        <time>2016-09-19T16:07:16Z</time>
      </trkpt>
      <trkpt lat="44.44081" lon="5.86635">
        <ele>1306</ele>
        <time>2016-09-19T16:09:16Z</time>
      </trkpt>
      <trkpt lat="44.44112" lon="5.86583">
        <ele>1306</ele>
        <time>2016-09-19T16:11:16Z</time>
      </trkpt>
      <trkpt lat="44.44136" lon="5.86493">
        <ele>1313</ele>
        <time>2016-09-19T16:13:16Z</time>
      </trkpt>
      <trkpt lat="44.44176" lon="5.86482">
        <ele>1303</ele>
        <time>2016-09-19T16:15:16Z</time>
      </trkpt>
      <trkpt lat="44.44213" lon="5.86392">
        <ele>1302</ele>
        <time>2016-09-19T16:17:16Z</time>
      </trkpt>
      <trkpt lat="44.44256" lon="5.86311">
        <ele>1292</ele>
        <time>2016-09-19T16:19:16Z</time>
      </trkpt>
      <trkpt lat="44.44268" lon="5.86223">
        <ele>1296</ele>
        <time>2016-09-19T16:21:16Z</time>
      </trkpt>
      <trkpt lat="44.44295" lon="5.8613">
        <ele>1301</ele>
        <time>2016-09-19T16:23:16Z</time>
      </trkpt>
      <trkpt lat="44.44345" lon="5.85991">
        <ele>1311</ele>
        <time>2016-09-19T16:25:16Z</time>
      </trkpt>
      <trkpt lat="44.444" lon="5.85967">
        <ele>1301</ele>
        <time>2016-09-19T16:27:16Z</time>
      </trkpt>
      <trkpt lat="44.44421" lon="5.86006">
        <ele>1286</ele>
        <time>2016-09-19T16:29:16Z</time>
      </trkpt>
      <trkpt lat="44.44547" lon="5.85933">
        <ele>1285</ele>
        <time>2016-09-19T16:31:16Z</time>
      </trkpt>
      <trkpt lat="44.44622" lon="5.85907">
        <ele>1274</ele>
        <time>2016-09-19T16:33:16Z</time>
      </trkpt>
      <trkpt lat="44.44734" lon="5.85798">
        <ele>1245</ele>
        <time>2016-09-19T16:35:16Z</time>
      </trkpt>
      <trkpt lat="44.44829" lon="5.85819">
        <ele>1228</ele>
        <time>2016-09-19T16:37:16Z</time>
      </trkpt>
      <trkpt lat="44.44847" lon="5.85884">
        <ele>1232</ele>
        <time>2016-09-19T16:39:16Z</time>
      </trkpt>
      <trkpt lat="44.44822" lon="5.85995">
        <ele>1243</ele>
        <time>2016-09-19T16:41:16Z</time>
      </trkpt>
      <trkpt lat="44.44842" lon="5.86023">
        <ele>1238</ele>
        <time>2016-09-19T16:43:16Z</time>
      </trkpt>
      <trkpt lat="44.44875" lon="5.85881">
        <ele>1229</ele>
        <time>2016-09-19T16:45:16Z</time>
      </trkpt>
      <trkpt lat="44.44933" lon="5.85716">
        <ele>1205</ele>
        <time>2016-09-19T16:47:16Z</time>
      </trkpt>
      <trkpt lat="44.44988" lon="5.8565">
        <ele>1198</ele>
        <time>2016-09-19T16:49:16Z</time>
      </trkpt>
      <trkpt lat="44.44997" lon="5.85624">
        <ele>1198</ele>
        <time>2016-09-19T16:51:16Z</time>
      </trkpt>
      <trkpt lat="44.45035" lon="5.85566">
        <ele>1201</ele>
        <time>2016-09-19T16:53:16Z</time>
      </trkpt>
      <trkpt lat="44.45048" lon="5.85502">
        <ele>1195</ele>
        <time>2016-09-19T16:55:16Z</time>
      </trkpt>
      <trkpt lat="44.45086" lon="5.85403">
        <ele>1178</ele>
        <time>2016-09-19T16:57:16Z</time>
      </trkpt>
      <trkpt lat="44.45071" lon="5.85259">
        <ele>1171</ele>
        <time>2016-09-19T16:59:16Z</time>
      </trkpt>
      <trkpt lat="44.45094" lon="5.85098">
        <ele>1169</ele>
        <time>2016-09-19T17:01:16Z</time>
      </trkpt>
      <trkpt lat="44.4515" lon="5.84982">
        <ele>1150</ele>
        <time>2016-09-19T17:03:16Z</time>
      </trkpt>
      <trkpt lat="44.45219" lon="5.84933">
        <ele>1150</ele>
        <time>2016-09-19T17:05:16Z</time>
      </trkpt>
      <trkpt lat="44.45221" lon="5.84731">
        <ele>1149</ele>
        <time>2016-09-19T17:07:16Z</time>
      </trkpt>
      <trkpt lat="44.4525" lon="5.84673">
        <ele>1156</ele>
        <time>2016-09-19T17:09:16Z</time>
      </trkpt>
      <trkpt lat="44.45225" lon="5.84615">
        <ele>1154</ele>
        <time>2016-09-19T17:11:16Z</time>
      </trkpt>
      <trkpt lat="44.45222" lon="5.84527">
        <ele>1158</ele>
        <time>2016-09-19T17:13:16Z</time>
      </trkpt>
      <trkpt lat="44.45216" lon="5.84472">
        <ele>1153</ele>
        <time>2016-09-19T17:15:16Z</time>
      </trkpt>
      <trkpt lat="44.45333" lon="5.84397">
        <ele>1173</ele>
        <time>2016-09-19T17:17:16Z</time>
      </trkpt>
      <trkpt lat="44.45388" lon="5.84347">
        <ele>1175</ele>
        <time>2016-09-19T17:19:16Z</time>
      </trkpt>
      <trkpt lat="44.45403" lon="5.843">
        <ele>1170</ele>
        <time>2016-09-19T17:21:16Z</time>
      </trkpt>
      <trkpt lat="44.45446" lon="5.84244">
        <ele>1174</ele>
        <time>2016-09-19T17:23:16Z</time>
      </trkpt>
      <trkpt lat="44.45495" lon="5.84118">
        <ele>1176</ele>
        <time>2016-09-19T17:25:16Z</time>
      </trkpt>
      <trkpt lat="44.45507" lon="5.84043">
        <ele>1170</ele>
        <time>2016-09-19T17:27:16Z</time>
      </trkpt>
      <trkpt lat="44.45541" lon="5.83927">
        <ele>1165</ele>
        <time>2016-09-19T17:29:16Z</time>
      </trkpt>
      <trkpt lat="44.45539" lon="5.83751">
        <ele>1139</ele>
        <time>2016-09-19T17:31:16Z</time>
      </trkpt>
      <trkpt lat="44.45622" lon="5.83738">
        <ele>1149</ele>
        <time>2016-09-19T17:33:16Z</time>
      </trkpt>
      <trkpt lat="44.45726" lon="5.83691">
        <ele>1153</ele>
        <time>2016-09-19T17:35:16Z</time>
      </trkpt>
      <trkpt lat="44.45751" lon="5.83652">
        <ele>1149</ele>
        <time>2016-09-19T17:37:16Z</time>
      </trkpt>
      <trkpt lat="44.45763" lon="5.83585">
        <ele>1132</ele>
        <time>2016-09-19T17:39:16Z</time>
      </trkpt>
      <trkpt lat="44.45843" lon="5.83525">
        <ele>1125</ele>
        <time>2016-09-19T17:41:16Z</time>
      </trkpt>
      <trkpt lat="44.45898" lon="5.83506">
        <ele>1117</ele>
        <time>2016-09-19T17:43:16Z</time>
      </trkpt>
      <trkpt lat="44.46039" lon="5.83543">
        <ele>1127</ele>
        <time>2016-09-19T17:45:16Z</time>
      </trkpt>
      <trkpt lat="44.46115" lon="5.83558">
        <ele>1130</ele>
        <time>2016-09-19T17:47:16Z</time>
      </trkpt>
      <trkpt lat="44.46225" lon="5.83631">
        <ele>1160</ele>
        <time>2016-09-19T17:49:16Z</time>
      </trkpt>
      <trkpt lat="44.4633" lon="5.83523">
        <ele>1153</ele>
        <time>2016-09-19T17:51:16Z</time>
      </trkpt>
      <trkpt lat="44.46386" lon="5.83474">
        <ele>1144</ele>
        <time>2016-09-19T17:53:16Z</time>
      </trkpt>
      <trkpt lat="44.46415" lon="5.83624">
        <ele>1171</ele>
        <time>2016-09-19T17:55:16Z</time>
      </trkpt>
      <trkpt lat="44.46458" lon="5.83776">
        <ele>1182</ele>
        <time>2016-09-19T17:57:16Z</time>
      </trkpt>
      <trkpt lat="44.46561" lon="5.83976">
        <ele>1179</ele>
        <time>2016-09-19T17:59:16Z</time>
      </trkpt>
      <trkpt lat="44.46576" lon="5.84055">
        <ele>1183</ele>
        <time>2016-09-19T18:01:16Z</time>
      </trkpt>
      <trkpt lat="44.46634" lon="5.84098">
        <ele>1171</ele>
        <time>2016-09-19T18:03:16Z</time>
      </trkpt>
      <trkpt lat="44.46671" lon="5.8418">
        <ele>1181</ele>
        <time>2016-09-19T18:05:16Z</time>
      </trkpt>
      <trkpt lat="44.46732" lon="5.84212">
        <ele>1186</ele>
        <time>2016-09-19T18:07:16Z</time>
      </trkpt>
      <trkpt lat="44.46771" lon="5.84105">
        <ele>1168</ele>
        <time>2016-09-19T18:09:16Z</time>
      </trkpt>
      <trkpt lat="44.46895" lon="5.83974">
        <ele>1155</ele>
        <time>2016-09-19T18:11:16Z</time>
      </trkpt>
      <trkpt lat="44.46928" lon="5.84">
        <ele>1170</ele>
        <time>2016-09-19T18:13:16Z</time>
      </trkpt>
      <trkpt lat="44.46973" lon="5.83978">
        <ele>1155</ele>
        <time>2016-09-19T18:15:16Z</time>
      </trkpt>
      <trkpt lat="44.47011" lon="5.84058">
        <ele>1167</ele>
        <time>2016-09-19T18:17:16Z</time>
      </trkpt>
      <trkpt lat="44.47065" lon="5.84103">
        <ele>1141</ele>
        <time>2016-09-19T18:19:16Z</time>
      </trkpt>
      <trkpt lat="44.47042" lon="5.84165">
        <ele>1163</ele>
        <time>2016-09-19T18:21:16Z</time>
      </trkpt>
      <trkpt lat="44.47062" lon="5.84229">
        <ele>1160</ele>
        <time>2016-09-19T18:23:16Z</time>
      </trkpt>
      <trkpt lat="44.47074" lon="5.84264">
        <ele>1158</ele>
        <time>2016-09-19T18:25:16Z</time>
      </trkpt>
      <trkpt lat="44.47129" lon="5.84268">
        <ele>1136</ele>
        <time>2016-09-19T18:27:16Z</time>
      </trkpt>
      <trkpt lat="44.47184" lon="5.84259">
        <ele>1114</ele>
        <time>2016-09-19T18:29:16Z</time>
      </trkpt>
      <trkpt lat="44.47106" lon="5.84244">
        <ele>1141</ele>
        <time>2016-09-19T18:31:16Z</time>
      </trkpt>
      <trkpt lat="44.471" lon="5.84167">
        <ele>1127</ele>
        <time>2016-09-19T18:33:16Z</time>
      </trkpt>
      <trkpt lat="44.47118" lon="5.84053">
        <ele>1102</ele>
        <time>2016-09-19T18:35:16Z</time>
      </trkpt>
      <trkpt lat="44.47078" lon="5.83982">
        <ele>1108</ele>
        <time>2016-09-19T18:37:16Z</time>
      </trkpt>
      <trkpt lat="44.4704" lon="5.83787">
        <ele>1074</ele>
        <time>2016-09-19T18:39:16Z</time>
      </trkpt>
      <trkpt lat="44.46991" lon="5.83671">
        <ele>1056</ele>
        <time>2016-09-19T18:41:16Z</time>
      </trkpt>
      <trkpt lat="44.47022" lon="5.83536">
        <ele>1036</ele>
        <time>2016-09-19T18:43:16Z</time>
      </trkpt>
      <trkpt lat="44.47028" lon="5.8347">
        <ele>1029</ele>
        <time>2016-09-19T18:45:16Z</time>
      </trkpt>
      <trkpt lat="44.47057" lon="5.83463">
        <ele>1034</ele>
        <time>2016-09-19T18:47:16Z</time>
      </trkpt>
      <trkpt lat="44.47074" lon="5.83525">
        <ele>1040</ele>
        <time>2016-09-19T18:49:16Z</time>
      </trkpt>
      <trkpt lat="44.47039" lon="5.83646">
        <ele>1045</ele>
        <time>2016-09-19T18:51:16Z</time>
      </trkpt>
      <trkpt lat="44.47054" lon="5.83654">
        <ele>1041</ele>
        <time>2016-09-19T18:53:16Z</time>
      </trkpt>
      <trkpt lat="44.47111" lon="5.83538">
        <ele>1028</ele>
        <time>2016-09-19T18:55:16Z</time>
      </trkpt>
      <trkpt lat="44.47092" lon="5.83706">
        <ele>1034</ele>
        <time>2016-09-19T18:57:16Z</time>
      </trkpt>
      <trkpt lat="44.47143" lon="5.83815">
        <ele>1028</ele>
        <time>2016-09-19T18:59:16Z</time>
      </trkpt>
      <trkpt lat="44.47199" lon="5.83879">
        <ele>1016</ele>
        <time>2016-09-19T19:01:16Z</time>
      </trkpt>
      <trkpt lat="44.47232" lon="5.83899">
        <ele>1005</ele>
        <time>2016-09-19T19:03:16Z</time>
      </trkpt>
      <trkpt lat="44.47239" lon="5.83937">
        <ele>1014</ele>
        <time>2016-09-19T19:05:16Z</time>
      </trkpt>
      <trkpt lat="44.47282" lon="5.83955">
        <ele>1004</ele>
        <time>2016-09-19T19:07:16Z</time>
      </trkpt>
      <trkpt lat="44.47323" lon="5.83982">
        <ele>997</ele>
        <time>2016-09-19T19:09:16Z</time>
      </trkpt>
      <trkpt lat="44.47348" lon="5.83961">
        <ele>979</ele>
        <time>2016-09-19T19:11:16Z</time>
      </trkpt>
      <trkpt lat="44.47262" lon="5.8392">
        <ele>999</ele>
        <time>2016-09-19T19:13:16Z</time>
      </trkpt>
      <trkpt lat="44.47262" lon="5.83871">
        <ele>986</ele>
        <time>2016-09-19T19:15:16Z</time>
      </trkpt>
      <trkpt lat="44.4721" lon="5.83809">
        <ele>997</ele>
        <time>2016-09-19T19:17:16Z</time>
      </trkpt>
      <trkpt lat="44.47302" lon="5.83652">
        <ele>968</ele>
        <time>2016-09-19T19:19:16Z</time>
      </trkpt>
      <trkpt lat="44.47375" lon="5.83618">
        <ele>947</ele>
        <time>2016-09-19T19:21:16Z</time>
      </trkpt>
      <trkpt lat="44.47411" lon="5.83455">
        <ele>930</ele>
        <time>2016-09-19T19:23:16Z</time>
      </trkpt>
      <trkpt lat="44.47415" lon="5.8356">
        <ele>939</ele>
        <time>2016-09-19T19:25:16Z</time>
      </trkpt>
      <trkpt lat="44.47435" lon="5.8362">
        <ele>926</ele>
        <time>2016-09-19T19:27:16Z</time>
      </trkpt>
      <trkpt lat="44.47423" lon="5.83663">
        <ele>923</ele>
        <time>2016-09-19T19:29:16Z</time>
      </trkpt>
      <trkpt lat="44.47375" lon="5.83684">
        <ele>936</ele>
        <time>2016-09-19T19:31:16Z</time>
      </trkpt>
      <trkpt lat="44.47326" lon="5.838">
        <ele>945</ele>
        <time>2016-09-19T19:33:16Z</time>
      </trkpt>
      <trkpt lat="44.47372" lon="5.83834">
        <ele>930</ele>
        <time>2016-09-19T19:35:16Z</time>
      </trkpt>
      <trkpt lat="44.47443" lon="5.83843">
        <ele>907</ele>
        <time>2016-09-19T19:37:16Z</time>
      </trkpt>
      <trkpt lat="44.47467" lon="5.83935">
        <ele>909</ele>
        <time>2016-09-19T19:39:16Z</time>
      </trkpt>
      <trkpt lat="44.47449" lon="5.84034">
        <ele>918</ele>
        <time>2016-09-19T19:41:16Z</time>
      </trkpt>
      <trkpt lat="44.47449" lon="5.84111">
        <ele>916</ele>
        <time>2016-09-19T19:43:16Z</time>
      </trkpt>
      <trkpt lat="44.47477" lon="5.84152">
        <ele>905</ele>
        <time>2016-09-19T19:45:16Z</time>
      </trkpt>
      <trkpt lat="44.47519" lon="5.84053">
        <ele>891</ele>
        <time>2016-09-19T19:47:16Z</time>
      </trkpt>
      <trkpt lat="44.47556" lon="5.84015">
        <ele>891</ele>
        <time>2016-09-19T19:49:16Z</time>
      </trkpt>
      <trkpt lat="44.47527" lon="5.83952">
        <ele>887</ele>
        <time>2016-09-19T19:51:16Z</time>
      </trkpt>
      <trkpt lat="44.47588" lon="5.83744">
        <ele>869</ele>
        <time>2016-09-19T19:53:16Z</time>
      </trkpt>
      <trkpt lat="44.47601" lon="5.8359">
        <ele>869</ele>
        <time>2016-09-19T19:55:16Z</time>
      </trkpt>
      <trkpt lat="44.47625" lon="5.83452">
        <ele>865</ele>
        <time>2016-09-19T19:57:16Z</time>
      </trkpt>
      <trkpt lat="44.47617" lon="5.8336">
        <ele>864</ele>
        <time>2016-09-19T19:59:16Z</time>
      </trkpt>
      <trkpt lat="44.47625" lon="5.83259">
        <ele>854</ele>
        <time>2016-09-19T20:01:16Z</time>
      </trkpt>
      <trkpt lat="44.47619" lon="5.83083">
        <ele>841</ele>
        <time>2016-09-19T20:03:16Z</time>
      </trkpt>
      <trkpt lat="44.47558" lon="5.82856">
        <ele>834</ele>
        <time>2016-09-19T20:05:16Z</time>
      </trkpt>
      <trkpt lat="44.47469" lon="5.8268">
        <ele>827</ele>
        <time>2016-09-19T20:07:16Z</time>
      </trkpt>
      <trkpt lat="44.47483" lon="5.82568">
        <ele>830</ele>
        <time>2016-09-19T20:09:16Z</time>
      </trkpt>
      <trkpt lat="44.47535" lon="5.82435">
        <ele>828</ele>
        <time>2016-09-19T20:11:16Z</time>
      </trkpt>
      <trkpt lat="44.47541" lon="5.82268">
        <ele>815</ele>
        <time>2016-09-19T20:13:16Z</time>
      </trkpt>
      <trkpt lat="44.47559" lon="5.82049">
        <ele>809</ele>
        <time>2016-09-19T20:15:16Z</time>
      </trkpt>
      <trkpt lat="44.47584" lon="5.81779">
        <ele>803</ele>
        <time>2016-09-19T20:17:16Z</time>
      </trkpt>
      <trkpt lat="44.47605" lon="5.81624">
        <ele>799</ele>
        <time>2016-09-19T20:19:16Z</time>
      </trkpt>
    </trkseg>
  </trk>
</gpx>